Time;durP1;ratioP1;P1;durP2;ratioP2;P2;SDS_P1;SDS_P2;PMS_P1;PMS_P2;Temp;Humidity;BMP_temperature;BMP_pressure;BME280_temperature;BME280_humidity;BME280_pressure;Samples;Min_cycle;Max_cycle;Signal;HPM_P1;HPM_P2
2022/11/12 00:00:42;;;;;;;53.60;27.50;;;;;;;6.58;82.31;100334.15;86387;1281;22465;-75
2022/11/12 00:02:49;;;;;;;40.90;25.30;;;;;;;6.59;82.24;100340.25;86222;1289;24318;-77
2022/11/12 00:04:51;;;;;;;45.10;26.10;;;;;;;6.59;82.31;100343.92;86231;1286;98498;-75
2022/11/12 00:06:53;;;;;;;42.10;25.80;;;;;;;6.59;82.34;100347.59;86305;1286;22584;-76
2022/11/12 00:08:54;;;;;;;53.40;29.00;;;;;;;6.59;82.24;100343.58;86302;1283;23271;-77
2022/11/12 00:10:56;;;;;;;52.30;27.10;;;;;;;6.59;82.35;100340.60;86096;1291;99678;-76
2022/11/12 00:12:58;;;;;;;43.00;25.10;;;;;;;6.59;82.38;100336.24;86222;1284;22484;-75
2022/11/12 00:15:00;;;;;;;42.00;26.20;;;;;;;6.57;82.47;100334.34;86042;1294;22530;-75
2022/11/12 00:17:02;;;;;;;40.10;25.90;;;;;;;6.52;82.17;100330.73;86092;1291;99080;-76
2022/11/12 00:19:03;;;;;;;41.50;27.10;;;;;;;6.56;82.33;100334.36;86344;1288;22590;-76
2022/11/12 00:21:05;;;;;;;50.50;27.70;;;;;;;6.55;82.12;100336.98;86238;1291;24295;-75
2022/11/12 00:23:07;;;;;;;50.20;27.40;;;;;;;6.53;82.14;100334.38;86389;1287;99065;-76
2022/11/12 00:25:09;;;;;;;46.30;27.20;;;;;;;6.52;82.52;100335.09;86302;1284;24263;-75
2022/11/12 00:27:13;;;;;;;44.60;26.90;;;;;;;6.52;82.45;100334.22;86096;1290;25337;-75
2022/11/12 00:29:15;;;;;;;47.50;25.50;;;;;;;6.51;82.24;100333.52;86162;1284;99557;-75
2022/11/12 00:31:16;;;;;;;39.60;26.40;;;;;;;6.47;82.42;100331.29;86162;1284;22728;-75
2022/11/12 00:33:18;;;;;;;46.40;27.60;;;;;;;6.46;82.41;100330.95;86139;1284;22508;-76
2022/11/12 00:35:20;;;;;;;42.60;27.10;;;;;;;6.45;82.44;100333.06;86249;1284;98646;-76
2022/11/12 00:37:22;;;;;;;45.10;27.40;;;;;;;6.43;82.50;100332.38;86263;1290;24252;-77
2022/11/12 00:39:23;;;;;;;46.60;27.30;;;;;;;6.41;82.24;100330.30;86171;1289;25571;-76
2022/11/12 00:41:25;;;;;;;45.10;27.40;;;;;;;6.39;82.47;100330.15;86094;1289;99888;-76
2022/11/12 00:43:27;;;;;;;43.20;27.10;;;;;;;6.39;82.52;100328.23;86078;1291;26151;-75
2022/11/12 00:45:29;;;;;;;47.10;27.80;;;;;;;6.37;82.39;100326.67;86174;1291;22915;-75
2022/11/12 00:47:31;;;;;;;42.80;26.90;;;;;;;6.35;82.48;100325.82;86089;1296;99884;-76
2022/11/12 00:49:33;;;;;;;51.30;28.70;;;;;;;6.34;82.50;100326.52;86197;1297;26544;-76
2022/11/12 00:51:35;;;;;;;46.50;27.30;;;;;;;6.28;82.57;100319.77;86080;1294;22514;-77
2022/11/12 00:53:37;;;;;;;44.50;27.10;;;;;;;6.30;82.52;100327.42;86093;1298;100244;-74
2022/11/12 00:55:38;;;;;;;44.20;28.10;;;;;;;6.29;82.60;100330.05;86208;1297;23830;-74
2022/11/12 00:57:41;;;;;;;46.10;27.60;;;;;;;6.27;82.56;100331.83;86131;1298;22490;-75
2022/11/12 00:59:42;;;;;;;47.30;27.20;;;;;;;6.25;82.36;100332.36;86319;1294;23968;-77
2022/11/12 01:01:44;;;;;;;50.90;28.70;;;;;;;6.24;82.43;100334.82;86274;1291;23001;-75
2022/11/12 01:03:46;;;;;;;53.90;28.30;;;;;;;6.23;82.42;100340.23;86348;1291;99919;-76
2022/11/12 01:05:48;;;;;;;54.50;28.80;;;;;;;6.22;82.54;100344.77;86221;1291;22641;-75
2022/11/12 01:07:53;;;;;;;49.70;29.70;;;;;;;6.21;82.67;100340.60;86307;1294;25551;-77
2022/11/12 01:09:55;;;;;;;61.80;28.20;;;;;;;6.19;82.58;100342.02;86372;1286;99626;-75
2022/11/12 01:11:57;;;;;;;51.20;29.60;;;;;;;6.18;82.43;100340.98;86430;1288;23493;-76
2022/11/12 01:14:02;;;;;;;42.90;28.90;;;;;;;6.18;82.50;100344.99;86150;1289;22615;-76
2022/11/12 01:16:06;;;;;;;50.80;27.80;;;;;;;6.16;82.76;100345.89;86049;1296;99578;-76
2022/11/12 01:18:08;;;;;;;48.00;27.00;;;;;;;6.15;82.53;100344.66;86256;1287;24261;-75
2022/11/12 01:20:10;;;;;;;49.40;28.00;;;;;;;6.13;82.60;100345.02;86267;1287;22625;-77
2022/11/12 01:22:13;;;;;;;45.70;28.10;;;;;;;6.11;82.72;100342.43;86086;1291;99554;-76
2022/11/12 01:24:14;;;;;;;45.40;28.00;;;;;;;6.10;82.63;100335.45;86168;1300;24576;-77
2022/11/12 01:26:18;;;;;;;41.60;26.10;;;;;;;6.09;82.77;100334.95;86111;1291;22485;-76
2022/11/12 01:28:20;;;;;;;40.90;26.60;;;;;;;6.07;82.67;100334.27;85900;1299;99490;-76
2022/11/12 01:30:23;;;;;;;50.40;28.10;;;;;;;6.05;82.69;100338.29;86358;1287;22519;-77
2022/11/12 01:32:26;;;;;;;51.40;28.60;;;;;;;6.03;82.67;100336.03;86082;1290;22849;-75
2022/11/12 01:34:29;;;;;;;43.40;27.40;;;;;;;6.03;82.64;100339.88;86092;1291;99521;-76
2022/11/12 01:36:37;;;;;;;50.80;28.50;;;;;;;6.00;82.84;100340.77;86190;1283;22661;-77
2022/11/12 01:38:40;;;;;;;43.40;28.20;;;;;;;5.99;82.75;100341.64;86136;1290;22559;-76
2022/11/12 01:40:41;;;;;;;51.10;28.70;;;;;;;5.98;82.81;100340.77;85999;1290;98786;-76
2022/11/12 01:42:51;;;;;;;57.10;29.90;;;;;;;5.97;82.85;100341.98;86151;1290;23296;-76
2022/11/12 01:44:53;;;;;;;46.70;27.50;;;;;;;5.94;82.90;100340.77;86477;1291;22956;-76
2022/11/12 01:47:06;;;;;;;54.70;27.70;;;;;;;5.95;82.85;100342.87;86432;1291;99006;-74
2022/11/12 01:49:20;;;;;;;46.00;28.30;;;;;;;5.95;82.85;100338.50;86744;1291;25562;-76
2022/11/12 01:51:25;;;;;;;49.70;26.80;;;;;;;5.94;82.78;100339.02;86727;1287;25047;-77
2022/11/12 01:53:31;;;;;;;53.90;30.20;;;;;;;5.93;82.68;100339.20;86668;1312;100502;-76
2022/11/12 01:55:36;;;;;;;58.50;29.00;;;;;;;5.93;82.67;100338.50;86833;1297;22521;-76
2022/11/12 01:57:45;;;;;;;51.00;29.60;;;;;;;5.93;82.78;100340.42;86751;1287;24265;-76
2022/11/12 01:59:52;;;;;;;51.00;28.10;;;;;;;5.92;82.85;100339.39;86444;1291;22763;-76
2022/11/12 02:01:56;;;;;;;47.60;29.70;;;;;;;5.92;82.74;100337.48;86316;1291;22521;-77
2022/11/12 02:03:58;;;;;;;42.10;26.70;;;;;;;5.91;82.77;100337.31;86685;1291;99775;-75
2022/11/12 02:06:05;;;;;;;48.10;28.20;;;;;;;5.90;82.81;100334.01;86250;1291;22962;-76
2022/11/12 02:08:09;;;;;;;44.00;27.80;;;;;;;5.90;82.88;100334.70;86207;1291;24355;-76
2022/11/12 02:10:13;;;;;;;43.60;28.10;;;;;;;5.89;82.83;100338.02;85969;1300;100038;-76
2022/11/12 02:14:36;;;;;;;49.10;29.20;;;;;;;5.87;83.10;100338.04;86304;1290;25797;-75
2022/11/12 02:16:40;;;;;;;49.60;29.10;;;;;;;5.86;82.81;100338.58;86305;1291;98964;-76
2022/11/12 02:18:42;;;;;;;45.60;28.90;;;;;;;5.85;82.88;100340.48;86251;1291;22523;-76
2022/11/12 02:20:44;;;;;;;49.40;28.20;;;;;;;5.85;82.77;100337.17;86039;1292;25239;-76
2022/11/12 02:22:46;;;;;;;49.20;28.00;;;;;;;5.84;82.90;100339.27;86205;1287;99525;-75
2022/11/12 02:24:48;;;;;;;49.30;28.90;;;;;;;5.83;82.91;100338.93;86337;1288;22559;-76
2022/11/12 02:26:54;;;;;;;42.90;28.30;;;;;;;5.83;82.88;100337.54;86289;1284;25221;-76
2022/11/12 02:28:55;;;;;;;53.80;28.40;;;;;;;5.82;82.86;100337.19;86298;1284;99539;-76
2022/11/12 02:30:57;;;;;;;50.90;28.10;;;;;;;5.81;82.96;100337.89;86246;1289;22576;-76
2022/11/12 02:32:59;;;;;;;43.10;28.00;;;;;;;5.80;82.83;100338.59;86371;1289;22486;-74
2022/11/12 02:35:01;;;;;;;51.20;28.50;;;;;;;5.78;82.70;100339.32;86344;1304;98600;-76
2022/11/12 02:37:02;;;;;;;44.00;27.90;;;;;;;5.77;82.83;100337.73;86325;1281;22667;-77
2022/11/12 02:39:04;;;;;;;44.40;27.80;;;;;;;5.76;82.99;100336.53;86112;1284;22540;-75
2022/11/12 02:41:06;;;;;;;49.50;30.10;;;;;;;5.76;82.77;100331.30;86064;1290;99626;-75
2022/11/12 02:43:08;;;;;;;54.30;28.90;;;;;;;5.75;82.94;100333.58;86339;1291;24358;-76
2022/11/12 02:45:10;;;;;;;54.30;28.20;;;;;;;5.71;82.86;100326.64;86357;1284;24551;-75
2022/11/12 02:47:12;;;;;;;55.60;29.40;;;;;;;5.69;82.92;100318.09;86158;1287;99039;-76
2022/11/12 02:49:14;;;;;;;47.50;29.00;;;;;;;5.71;83.01;100325.23;86329;1289;24269;-77
2022/11/12 02:51:16;;;;;;;42.70;26.50;;;;;;;5.74;82.95;100329.23;86330;1287;24050;-76
2022/11/12 02:53:18;;;;;;;46.50;27.70;;;;;;;5.73;83.03;100325.73;86179;1285;99675;-75
2022/11/12 02:55:19;;;;;;;43.70;28.00;;;;;;;5.73;82.99;100327.32;86183;1291;22523;-76
2022/11/12 02:57:23;;;;;;;48.00;28.30;;;;;;;5.73;83.03;100327.14;86235;1291;23947;-76
2022/11/12 02:59:25;;;;;;;49.20;29.00;;;;;;;5.74;83.11;100326.44;86099;1289;98450;-76
2022/11/12 03:01:27;;;;;;;48.10;28.90;;;;;;;5.74;83.06;100327.84;86190;1291;23298;-75
2022/11/12 03:03:28;;;;;;;38.80;26.20;;;;;;;5.73;83.06;100325.91;86255;1290;22603;-76
2022/11/12 03:05:35;;;;;;;54.60;27.00;;;;;;;5.71;83.07;100325.58;86261;1287;98711;-77
2022/11/12 03:07:37;;;;;;;45.20;27.20;;;;;;;5.74;83.07;100324.34;86349;1290;22695;-76
2022/11/12 03:09:38;;;;;;;44.60;26.30;;;;;;;5.74;83.18;100323.30;86359;1287;22604;-75
2022/11/12 03:11:42;;;;;;;43.60;27.80;;;;;;;5.73;83.17;100329.41;86283;1289;98372;-75
2022/11/12 03:13:43;;;;;;;47.10;26.10;;;;;;;5.74;82.97;100330.80;86236;1291;22589;-77
2022/11/12 03:15:46;;;;;;;44.70;26.20;;;;;;;5.74;83.19;100329.76;86188;1290;99415;-75
2022/11/12 03:17:48;;;;;;;47.70;25.70;;;;;;;5.69;82.98;100319.83;86260;1292;23696;-76
2022/11/12 03:19:50;;;;;;;43.30;26.30;;;;;;;5.72;83.04;100328.18;86345;1283;22572;-75
2022/11/12 03:21:52;;;;;;;44.90;26.20;;;;;;;5.71;82.99;100327.50;86042;1305;99254;-76
2022/11/12 03:23:54;;;;;;;45.10;27.10;;;;;;;5.69;82.95;100324.21;86255;1291;22500;-76
2022/11/12 03:25:55;;;;;;;54.70;28.00;;;;;;;5.68;83.09;100328.92;86161;1291;22581;-76
2022/11/12 03:28:01;;;;;;;42.80;26.80;;;;;;;5.67;83.09;100328.05;86143;1291;100869;-76
2022/11/12 03:30:04;;;;;;;43.80;26.40;;;;;;;5.64;83.20;100329.29;86439;1287;22551;-76
2022/11/12 03:32:05;;;;;;;54.50;27.30;;;;;;;5.62;83.10;100328.27;86243;1302;22537;-77
2022/11/12 03:34:10;;;;;;;48.20;26.90;;;;;;;5.61;83.08;100332.27;86047;1289;98603;-76
2022/11/12 03:36:13;;;;;;;42.60;25.90;;;;;;;5.59;83.11;100329.84;86336;1290;22609;-76
2022/11/12 03:38:15;;;;;;;44.50;25.60;;;;;;;5.56;83.13;100329.86;85975;1299;26477;-75
2022/11/12 03:40:17;;;;;;;43.90;25.90;;;;;;;5.56;83.07;100335.27;86101;1300;99827;-77
2022/11/12 03:42:19;;;;;;;48.40;26.10;;;;;;;5.54;83.10;100334.41;86250;1291;23149;-75
2022/11/12 03:44:21;;;;;;;41.00;26.30;;;;;;;5.51;83.03;100330.23;86155;1314;25569;-76
2022/11/12 03:46:23;;;;;;;40.30;24.70;;;;;;;5.50;83.17;100332.85;86194;1290;98943;-76
2022/11/12 03:48:24;;;;;;;52.80;27.40;;;;;;;5.48;83.15;100332.86;86265;1291;22583;-76
2022/11/12 03:50:28;;;;;;;41.80;27.40;;;;;;;5.45;83.00;100329.05;86261;1290;22635;-76
2022/11/12 03:52:30;;;;;;;50.60;27.70;;;;;;;5.44;83.18;100328.87;86100;1283;99723;-75
2022/11/12 03:54:31;;;;;;;45.10;26.00;;;;;;;5.43;83.17;100328.89;86502;1294;22473;-75
2022/11/12 03:56:33;;;;;;;42.70;26.50;;;;;;;5.41;83.18;100331.16;86343;1289;22499;-75
2022/11/12 03:58:35;;;;;;;44.30;26.30;;;;;;;5.41;83.23;100329.06;86233;1291;98692;-76
2022/11/12 04:00:36;;;;;;;45.40;26.50;;;;;;;5.39;83.25;100328.91;86437;1287;22509;-76
2022/11/12 04:02:38;;;;;;;51.60;27.40;;;;;;;5.37;83.21;100329.09;86436;1287;22598;-76
2022/11/12 04:09:20;;;;;;;45.90;25.70;;;;;;;5.32;83.28;100330.51;86350;1290;22477;-75
2022/11/12 04:11:22;;;;;;;41.90;25.90;;;;;;;5.29;83.25;100328.95;86104;1287;98420;-77
2022/11/12 04:13:27;;;;;;;52.70;27.30;;;;;;;5.27;83.30;100332.27;86255;1303;24350;-76
2022/11/12 04:15:29;;;;;;;45.80;26.40;;;;;;;5.26;83.22;100333.52;86230;1291;25355;-77
2022/11/12 04:22:11;;;;;;;47.40;26.00;;;;;;;5.21;83.22;100330.38;86092;1290;98418;-76
2022/11/12 04:26:21;;;;;;;46.00;25.60;;;;;;;5.19;83.18;100330.39;86360;1286;22533;-75
2022/11/12 04:26:35;;;;;;;41.70;26.30;;;;;;;5.16;83.15;100328.84;86257;1287;25409;-77
2022/11/12 04:28:38;;;;;;;50.40;28.60;;;;;;;5.12;83.19;100326.60;86180;1297;98561;-77
2022/11/12 04:30:39;;;;;;;46.00;25.70;;;;;;;5.09;83.19;100329.91;86131;1290;24431;-75
2022/11/12 04:32:47;;;;;;;42.20;25.00;;;;;;;5.06;83.19;100334.45;86274;1286;22667;-76
2022/11/12 04:34:48;;;;;;;40.20;25.60;;;;;;;4.95;83.07;100326.30;86485;1288;98322;-74
2022/11/12 04:36:50;;;;;;;37.50;25.00;;;;;;;4.97;83.01;100331.00;86208;1294;23232;-76
2022/11/12 04:38:52;;;;;;;36.50;24.20;;;;;;;4.93;83.00;100330.67;86217;1286;25551;-76
2022/11/12 04:45:37;;;;;;;42.20;25.80;;;;;;;4.77;83.01;100323.75;86479;1287;24335;-76
2022/11/12 04:47:42;;;;;;;43.80;25.00;;;;;;;4.73;83.09;100325.85;86310;1295;98293;-76
2022/11/12 04:49:44;;;;;;;42.40;23.80;;;;;;;4.68;82.94;100328.13;86323;1293;24246;-76
2022/11/12 04:52:04;;;;;;;39.60;22.50;;;;;;;4.62;82.98;100327.61;86458;1294;22695;-76
2022/11/12 04:54:06;;;;;;;46.50;24.30;;;;;;;4.56;82.95;100329.71;86440;1292;22422;-76
2022/11/12 04:56:07;;;;;;;44.90;24.90;;;;;;;4.51;83.00;100330.59;86588;1287;22590;-76
2022/11/12 04:58:09;;;;;;;38.80;24.60;;;;;;;4.48;83.14;100333.02;86419;1294;98594;-76
2022/11/12 05:00:12;;;;;;;41.90;25.80;;;;;;;4.44;83.10;100333.39;86600;1289;24261;-76
2022/11/12 05:02:15;;;;;;;42.00;24.60;;;;;;;4.40;83.05;100332.70;86862;1291;22566;-76
2022/11/12 05:04:17;;;;;;;43.60;27.10;;;;;;;4.37;82.95;100331.30;86411;1294;99364;-76
2022/11/12 05:08:52;;;;;;;48.20;26.00;;;;;;;4.30;83.05;100330.45;86404;1284;22661;-75
2022/11/12 05:10:55;;;;;;;50.20;26.40;;;;;;;4.26;82.95;100332.18;86369;1294;100207;-76
2022/11/12 05:12:57;;;;;;;46.10;25.90;;;;;;;4.23;83.18;100330.80;86502;1287;24423;-75
2022/11/12 05:14:59;;;;;;;47.50;26.00;;;;;;;4.23;83.19;100330.27;86285;1297;22494;-76
2022/11/12 05:17:01;;;;;;;44.20;27.30;;;;;;;4.21;83.09;100329.58;86436;1305;99647;-75
2022/11/12 05:19:06;;;;;;;42.10;26.30;;;;;;;4.22;83.28;100327.66;86440;1296;22543;-75
2022/11/12 05:23:30;;;;;;;50.70;30.10;;;;;;;4.19;83.39;100328.36;86416;1298;98853;-76
2022/11/12 05:25:34;;;;;;;51.90;29.00;;;;;;;4.20;83.33;100330.45;86652;1294;23783;-75
2022/11/12 05:27:36;;;;;;;51.10;29.50;;;;;;;4.20;83.29;100324.36;86783;1293;25218;-75
2022/11/12 05:29:38;;;;;;;39.20;27.60;;;;;;;4.19;83.37;100330.10;86591;1290;99541;-75
2022/11/12 05:31:40;;;;;;;40.10;24.80;;;;;;;4.17;83.45;100325.59;86685;1290;25899;-76
2022/11/12 05:33:42;;;;;;;41.40;25.30;;;;;;;4.16;83.40;100328.36;86628;1292;22579;-76
2022/11/12 05:35:44;;;;;;;49.30;25.70;;;;;;;4.14;83.21;100336.20;86557;1285;99642;-75
2022/11/12 05:37:45;;;;;;;41.50;26.00;;;;;;;4.11;83.23;100334.98;86502;1293;22487;-76
2022/11/12 05:39:47;;;;;;;43.90;24.90;;;;;;;4.08;83.09;100338.10;86529;1287;23733;-75
2022/11/12 05:41:57;;;;;;;43.80;24.00;;;;;;;3.99;83.10;100328.70;86774;1289;22536;-75
2022/11/12 05:43:58;;;;;;;52.00;25.60;;;;;;;3.99;83.04;100336.70;86652;1296;22481;-76
2022/11/12 05:46:00;;;;;;;49.70;26.40;;;;;;;3.95;82.94;100333.23;86514;1287;98669;-76
2022/11/12 05:48:02;;;;;;;49.00;26.90;;;;;;;3.90;82.90;100337.57;86402;1289;24345;-74
2022/11/12 05:50:04;;;;;;;53.70;26.30;;;;;;;3.86;82.87;100337.75;86686;1292;22477;-74
2022/11/12 05:52:07;;;;;;;36.80;25.10;;;;;;;3.83;83.13;100334.08;86447;1287;99581;-75
2022/11/12 05:54:09;;;;;;;40.00;25.30;;;;;;;3.81;83.13;100337.20;86605;1288;22789;-74
2022/11/12 05:56:11;;;;;;;45.80;25.90;;;;;;;3.78;83.22;100335.98;86408;1287;24391;-74
2022/11/12 05:58:12;;;;;;;48.00;27.50;;;;;;;3.76;83.28;100343.98;86195;1284;98601;-73
2022/11/12 06:00:15;;;;;;;36.40;23.70;;;;;;;3.73;83.21;100349.55;86378;1287;24248;-75
2022/11/12 06:02:17;;;;;;;40.30;25.50;;;;;;;3.69;82.93;100351.10;86362;1292;22508;-74
2022/11/12 06:04:18;;;;;;;51.40;26.50;;;;;;;3.66;83.06;100351.96;86261;1287;99842;-74
2022/11/12 06:06:22;;;;;;;41.10;24.90;;;;;;;3.65;83.16;100351.79;86333;1289;22567;-74
2022/11/12 06:08:24;;;;;;;43.60;26.90;;;;;;;3.63;83.14;100354.56;86399;1288;23981;-73
2022/11/12 06:10:26;;;;;;;46.00;26.50;;;;;;;3.64;83.50;100356.83;86236;1290;98798;-74
2022/11/12 06:12:28;;;;;;;50.30;29.10;;;;;;;3.64;83.21;100358.04;86306;1287;23479;-73
2022/11/12 06:14:31;;;;;;;49.10;27.40;;;;;;;3.64;83.72;100361.17;86198;1290;24407;-72
2022/11/12 06:16:33;;;;;;;51.50;26.90;;;;;;;3.64;83.20;100361.86;86226;1290;99259;-72
2022/11/12 06:18:34;;;;;;;51.60;28.50;;;;;;;3.62;83.19;100360.81;86255;1287;22706;-73
2022/11/12 06:20:37;;;;;;;44.90;27.60;;;;;;;3.62;83.37;100363.95;86126;1287;25552;-74
2022/11/12 06:22:38;;;;;;;54.40;31.10;;;;;;;3.64;83.44;100365.86;86093;1287;100021;-72
2022/11/12 06:24:40;;;;;;;55.50;30.20;;;;;;;3.67;83.51;100367.42;86214;1286;22516;-73
2022/11/12 06:26:42;;;;;;;54.30;30.90;;;;;;;3.72;83.62;100367.45;86235;1287;25567;-74
2022/11/12 06:28:44;;;;;;;58.40;31.40;;;;;;;3.77;83.85;100363.27;86128;1291;99976;-75
2022/11/12 06:30:46;;;;;;;50.10;29.40;;;;;;;3.79;83.61;100367.11;86484;1288;23090;-74
2022/11/12 06:32:49;;;;;;;51.90;30.50;;;;;;;3.82;83.80;100374.26;86151;1286;22464;-73
2022/11/12 06:34:52;;;;;;;47.30;29.40;;;;;;;3.84;83.80;100377.04;86152;1282;100458;-72
2022/11/12 06:36:54;;;;;;;51.50;28.50;;;;;;;3.83;83.79;100378.94;86310;1287;22630;-73
2022/11/12 06:38:56;;;;;;;49.90;29.10;;;;;;;3.90;83.63;100381.73;86200;1291;24273;-73
2022/11/12 06:40:58;;;;;;;56.00;30.60;;;;;;;3.95;83.75;100385.23;86191;1286;98543;-74
2022/11/12 06:42:59;;;;;;;57.10;32.80;;;;;;;3.99;83.96;100377.41;86151;1287;22569;-74
2022/11/12 06:45:01;;;;;;;62.30;34.10;;;;;;;4.05;83.89;100381.40;86326;1291;23124;-74
2022/11/12 06:47:03;;;;;;;56.80;32.40;;;;;;;4.12;83.98;100379.69;86148;1295;98415;-73
2022/11/12 06:49:04;;;;;;;58.00;31.80;;;;;;;4.18;84.08;100379.69;86419;1288;22552;-74
2022/11/12 06:51:20;;;;;;;55.60;31.60;;;;;;;4.23;84.08;100383.34;86245;1284;22612;-73
2022/11/12 06:53:25;;;;;;;56.40;30.00;;;;;;;4.32;84.12;100387.35;86295;1291;99564;-74
2022/11/12 06:55:27;;;;;;;60.70;32.50;;;;;;;4.37;84.03;100388.05;86281;1289;22533;-73
2022/11/12 06:57:29;;;;;;;57.10;33.70;;;;;;;4.43;84.18;100384.20;86143;1291;23252;-75
2022/11/12 06:59:31;;;;;;;57.10;31.40;;;;;;;4.48;84.02;100382.98;86390;1297;98801;-74
2022/11/12 07:01:33;;;;;;;55.60;32.10;;;;;;;4.53;84.04;100387.34;86068;1287;22731;-73
2022/11/12 07:03:35;;;;;;;48.20;29.50;;;;;;;4.58;84.03;100388.90;85835;1289;22557;-74
2022/11/12 07:05:37;;;;;;;61.30;32.80;;;;;;;4.62;83.81;100385.06;85983;1290;99551;-73
2022/11/12 07:07:40;;;;;;;59.10;32.00;;;;;;;4.69;83.98;100386.98;86065;1287;22696;-73
2022/11/12 07:09:42;;;;;;;58.80;33.00;;;;;;;4.73;84.08;100387.14;85977;1290;22491;-74
2022/11/12 07:11:43;;;;;;;59.50;32.50;;;;;;;4.78;84.10;100388.35;85780;1290;99545;-73
2022/11/12 07:13:46;;;;;;;54.80;31.40;;;;;;;4.82;84.05;100391.30;86213;1293;22575;-72
2022/11/12 07:15:48;;;;;;;56.10;33.10;;;;;;;4.85;84.10;100399.14;86053;1287;22546;-74
2022/11/12 07:17:50;;;;;;;52.90;32.00;;;;;;;4.90;83.90;100399.13;85725;1294;99637;-74
2022/11/12 07:19:53;;;;;;;58.20;31.80;;;;;;;4.95;83.93;100400.68;86257;1282;24113;-73
2022/11/12 07:21:56;;;;;;;66.90;30.50;;;;;;;5.00;84.01;100396.84;85959;1288;23041;-74
2022/11/12 07:23:59;;;;;;;66.80;34.30;;;;;;;5.04;83.96;100401.52;86120;1283;99583;-73
2022/11/12 07:26:16;;;;;;;54.30;31.10;;;;;;;5.08;84.00;100400.30;86136;1287;22604;-74
2022/11/12 07:28:20;;;;;;;51.00;30.50;;;;;;;5.12;83.99;100402.90;85842;1291;99661;-74
2022/11/12 07:30:22;;;;;;;51.20;31.50;;;;;;;5.15;84.04;100402.55;85971;1284;23906;-73
2022/11/12 07:32:24;;;;;;;55.10;31.80;;;;;;;5.19;84.05;100396.61;86045;1284;22599;-75
2022/11/12 07:34:26;;;;;;;61.00;31.80;;;;;;;5.23;83.99;100399.91;86093;1287;98395;-73
2022/11/12 07:36:28;;;;;;;57.60;33.30;;;;;;;5.27;84.05;100404.94;86029;1290;22525;-74
2022/11/12 07:38:31;;;;;;;56.70;33.60;;;;;;;5.32;84.12;100402.85;86151;1287;24241;-73
2022/11/12 07:40:33;;;;;;;57.90;32.50;;;;;;;5.38;84.10;100399.85;86109;1291;99937;-73
2022/11/12 07:42:35;;;;;;;56.40;32.40;;;;;;;5.43;84.03;100395.65;86002;1280;233864;-73
2022/11/12 07:44:36;;;;;;;61.20;34.50;;;;;;;5.48;84.05;100391.97;85972;1283;22500;-72
2022/11/12 07:46:38;;;;;;;65.50;32.70;;;;;;;5.52;83.97;100389.50;85878;1283;98630;-74
2022/11/12 07:48:41;;;;;;;60.10;33.40;;;;;;;5.55;83.98;100394.55;86037;1284;26537;-72
2022/11/12 07:50:43;;;;;;;60.70;34.00;;;;;;;5.59;84.06;100393.83;86059;1290;22556;-72
2022/11/12 07:52:45;;;;;;;68.60;34.10;;;;;;;5.63;83.95;100397.13;86077;1288;100466;-73
2022/11/12 07:54:46;;;;;;;60.30;30.40;;;;;;;5.66;84.06;100396.06;85962;1287;26492;-72
2022/11/12 07:56:48;;;;;;;66.40;34.40;;;;;;;5.69;83.98;100388.55;85916;1290;22498;-73
2022/11/12 07:58:51;;;;;;;55.80;31.50;;;;;;;5.72;84.06;100384.69;85909;1290;99554;-72
2022/11/12 08:00:53;;;;;;;60.60;34.50;;;;;;;5.74;83.84;100381.72;85837;1289;22488;-73
2022/11/12 08:02:59;;;;;;;60.50;34.50;;;;;;;5.76;83.99;100385.02;85886;1284;24292;-73
2022/11/12 08:05:01;;;;;;;56.50;33.80;;;;;;;5.79;83.94;100387.44;86726;1288;99555;-73
2022/11/12 08:07:02;;;;;;;57.00;33.00;;;;;;;5.84;84.05;100388.98;85971;1287;24248;-75
2022/11/12 08:09:06;;;;;;;67.50;31.40;;;;;;;5.88;83.96;100389.47;86094;1280;22671;-74
2022/11/12 08:11:08;;;;;;;59.50;34.70;;;;;;;5.92;84.07;100392.42;86109;1290;99908;-74
2022/11/12 08:13:10;;;;;;;55.10;30.90;;;;;;;5.96;83.97;100391.36;86055;1287;22602;-72
2022/11/12 08:15:13;;;;;;;56.30;31.90;;;;;;;6.01;84.02;100389.27;86123;1283;23255;-73
2022/11/12 08:17:15;;;;;;;58.30;31.70;;;;;;;6.05;83.88;100389.59;86036;1283;99755;-73
2022/11/12 08:19:19;;;;;;;57.60;33.20;;;;;;;6.09;83.66;100390.95;85916;1285;22553;-74
2022/11/12 08:21:21;;;;;;;54.90;33.40;;;;;;;6.13;83.95;100393.02;86172;1287;22531;-73
2022/11/12 08:23:22;;;;;;;58.50;34.40;;;;;;;6.21;83.95;100393.30;85904;1290;98649;-74
2022/11/12 08:25:24;;;;;;;55.60;32.40;;;;;;;6.34;84.15;100396.70;86137;1287;22927;-74
2022/11/12 08:27:26;;;;;;;54.50;32.30;;;;;;;6.47;84.32;100398.52;85988;1291;22543;-74
2022/11/12 08:29:28;;;;;;;55.80;32.60;;;;;;;6.64;84.43;100396.78;86144;1287;99611;-75
2022/11/12 08:31:29;;;;;;;59.10;32.00;;;;;;;6.77;84.25;100398.25;86293;1290;22639;-74
2022/11/12 08:33:32;;;;;;;63.10;32.30;;;;;;;6.85;83.94;100400.45;86191;1291;23435;-74
2022/11/12 08:35:36;;;;;;;63.70;32.60;;;;;;;6.92;84.09;100400.73;86225;1304;99938;-73
2022/11/12 08:37:38;;;;;;;58.90;33.60;;;;;;;7.03;84.02;100401.65;86214;1291;25276;-74
2022/11/12 08:39:40;;;;;;;54.70;30.90;;;;;;;7.12;83.69;100404.70;86376;1288;22725;-73
2022/11/12 08:41:41;;;;;;;58.10;32.10;;;;;;;7.21;83.62;100402.17;86213;1291;99217;-74
2022/11/12 08:43:43;;;;;;;51.80;31.60;;;;;;;7.31;83.49;100408.34;86435;1289;22997;-73
2022/11/12 08:45:47;;;;;;;53.40;30.20;;;;;;;7.40;83.35;100409.98;86230;1307;24442;-73
2022/11/12 08:47:49;;;;;;;58.00;31.50;;;;;;;7.48;83.25;100410.41;86284;1289;99595;-75
2022/11/12 08:49:50;;;;;;;53.50;29.90;;;;;;;7.55;83.46;100409.27;86346;1288;22544;-74
2022/11/12 08:51:52;;;;;;;55.70;30.90;;;;;;;7.63;83.29;100407.43;86143;1291;23998;-74
2022/11/12 08:53:54;;;;;;;50.90;30.60;;;;;;;7.71;83.36;100411.69;86202;1288;99836;-74
2022/11/12 08:55:57;;;;;;;44.70;28.80;;;;;;;7.78;83.31;100412.11;86230;1313;23222;-74
2022/11/12 08:58:02;;;;;;;56.80;30.50;;;;;;;7.86;83.32;100410.26;86416;1298;22474;-73
2022/11/12 09:00:08;;;;;;;51.60;32.00;;;;;;;7.95;82.85;100409.43;86239;1313;25562;-74
2022/11/12 09:02:13;;;;;;;49.40;30.00;;;;;;;8.02;83.09;100406.88;86530;1312;22631;-74
2022/11/12 09:04:15;;;;;;;54.00;30.00;;;;;;;8.09;83.03;100408.37;86396;1294;99836;-75
2022/11/12 09:06:17;;;;;;;51.70;31.00;;;;;;;8.15;83.01;100409.48;86391;1305;24319;-75
2022/11/12 09:08:23;;;;;;;57.00;31.00;;;;;;;8.20;82.82;100413.27;86396;1313;22492;-73
2022/11/12 09:10:26;;;;;;;54.60;31.70;;;;;;;8.26;82.86;100411.59;86300;1306;99762;-74
2022/11/12 09:12:28;;;;;;;55.30;30.30;;;;;;;8.34;82.77;100412.53;86314;1298;24297;-74
2022/11/12 09:14:33;;;;;;;49.40;29.10;;;;;;;8.36;82.55;100404.45;86384;1313;24395;-74
2022/11/12 09:16:36;;;;;;;44.00;27.90;;;;;;;8.50;82.57;100408.45;86522;1290;99786;-74
2022/11/12 09:18:38;;;;;;;45.10;28.10;;;;;;;8.59;82.96;100405.14;86760;1287;22556;-75
2022/11/12 09:20:40;;;;;;;47.80;27.20;;;;;;;8.70;82.73;100402.84;86622;1290;22580;-74
2022/11/12 09:22:42;;;;;;;54.30;28.30;;;;;;;8.80;82.98;100400.58;86184;1283;100282;-74
2022/11/12 09:24:43;;;;;;;49.10;29.10;;;;;;;8.89;82.75;100403.91;86412;1292;22468;-74
2022/11/12 09:26:46;;;;;;;52.50;29.20;;;;;;;8.98;82.60;100404.10;86293;1290;22736;-75
2022/11/12 09:28:48;;;;;;;51.10;27.70;;;;;;;9.09;82.54;100406.00;86320;1298;98569;-73
2022/11/12 09:30:51;;;;;;;50.40;28.40;;;;;;;9.20;82.55;100405.96;86329;1291;22686;-74
2022/11/12 09:32:57;;;;;;;54.70;31.40;;;;;;;9.27;82.54;100401.77;86491;1283;22618;-75
2022/11/12 09:34:59;;;;;;;50.00;29.90;;;;;;;9.40;82.67;100401.53;86614;1282;99510;-74
2022/11/12 09:37:01;;;;;;;57.90;27.80;;;;;;;9.51;82.37;100396.05;86544;1297;23381;-72
2022/11/12 09:39:03;;;;;;;44.10;22.80;;;;;;;9.64;82.41;100395.26;86373;1291;24321;-75
2022/11/12 09:41:07;;;;;;;43.40;24.60;;;;;;;9.82;82.13;100396.26;86291;1289;98370;-75
2022/11/12 09:43:17;;;;;;;41.10;22.50;;;;;;;10.01;82.26;100394.27;86387;1287;26509;-74
2022/11/12 09:45:31;;;;;;;37.40;20.90;;;;;;;10.29;82.22;100396.43;86203;1294;22564;-75